Pays
Station

 

Conditions  météo  pour  Toul/Rosieres  -  France    France

  
-1 °C
    
 
 

METAR pour Toul/Rosieres :

LFSL 212130Z AUTO 28004KT CAVOK M01/M03 Q1020

 

Voici le bulletin pour Toul/Rosieres - France.
 
Le bulletin a été fait il y a 29 minutes, à 21:30 UTC .
Le vent soufflait à la vitesse de 2.1 mètres par seconde de Ouest (280°).
 
La température était de -1 °C, avec un point de rosée à -3 °C.
La température ressentie était de -4 °C.
 
La pression atmosphérique était de 1020 hPa.
L'humidité relative était de 86.2%.
 
Il y avait pas de nuages en-dessous de 1500 mètres et pas de cumulonimbus.
 
La visibilité globale était de supérieure à 10 kilomètres.
 

 
 
 

Pays :   A   B   C   D   E   F   G   H   I   J   K   L   M   N   O   P   Q   R   S   T   U   V   W   Y   Z

 

Partenaires :  Info Météo avec Met'info
Météo Marine avec MeteoMarine.net
Infos Site  |  Infos Légales  |  Crédits  |  Confidentialité
Contactez-nous  |  Ajouter aux favoris
© 2013-2019 METAR - Tous droits réservés